Time;durP1;ratioP1;P1;durP2;ratioP2;P2;SDS_P1;SDS_P2;PMS_P1;PMS_P2;Temp;Humidity;BMP_temperature;BMP_pressure;BME280_temperature;BME280_humidity;BME280_pressure;Samples;Min_cycle;Max_cycle;Signal;HPM_P1;HPM_P2
2022/01/14 00:01:08;;;;;;;30.58;13.13;;;7.40;99.90;;;;;;5019095;28;20140;-75
2022/01/14 00:03:33;;;;;;;29.15;12.70;;;7.50;99.90;;;;;;5014803;28;20072;-75
2022/01/14 00:05:59;;;;;;;29.58;14.10;;;7.50;99.90;;;;;;5036091;28;20080;-75
2022/01/14 00:08:25;;;;;;;28.52;12.68;;;7.40;99.90;;;;;;5016738;28;20701;-75
2022/01/14 00:10:51;;;;;;;29.85;14.82;;;7.50;99.90;;;;;;5025878;28;20049;-75
2022/01/14 00:16:07;;;;;;;28.60;12.00;;;7.40;99.90;;;;;;5022075;28;20440;-75
2022/01/14 00:18:33;;;;;;;33.40;15.23;;;7.40;99.90;;;;;;5014652;28;20037;-75
2022/01/14 00:21:00;;;;;;;31.45;15.52;;;7.40;99.90;;;;;;5036419;28;20092;-75
2022/01/14 00:23:31;;;;;;;31.52;14.95;;;7.40;99.90;;;;;;5014022;28;20049;-75
2022/01/14 00:31:50;;;;;;;28.40;13.75;;;7.40;99.90;;;;;;5032264;28;20049;-75
2022/01/14 00:34:17;;;;;;;31.05;13.60;;;7.40;99.90;;;;;;5028568;28;20491;-75
2022/01/14 00:36:43;;;;;;;28.63;12.70;;;7.80;99.90;;;;;;5037283;28;20049;-75
2022/01/14 00:39:11;;;;;;;32.58;14.55;;;7.70;99.90;;;;;;5034607;28;20544;-75
2022/01/14 00:41:38;;;;;;;31.05;14.20;;;7.40;99.90;;;;;;5034302;28;20041;-75
2022/01/14 00:44:10;;;;;;;30.63;13.98;;;7.40;99.90;;;;;;5017535;28;20060;-75
2022/01/14 00:46:40;;;;;;;31.35;14.75;;;7.30;99.90;;;;;;5017624;28;20052;-75
2022/01/14 00:49:07;;;;;;;34.40;13.02;;;7.40;99.90;;;;;;5037381;28;20064;-75
2022/01/14 00:51:34;;;;;;;34.22;14.73;;;7.40;99.90;;;;;;5039346;28;20088;-75
2022/01/14 00:53:59;;;;;;;33.80;14.32;;;7.40;99.90;;;;;;5020316;28;20119;-75
2022/01/14 01:01:43;;;;;;;23.85;11.50;;;7.40;99.90;;;;;;5034656;28;20399;-75
2022/01/14 01:04:14;;;;;;;26.27;10.95;;;7.40;99.90;;;;;;5030889;28;20486;-75
2022/01/14 01:06:40;;;;;;;24.42;11.75;;;7.40;99.90;;;;;;5035924;28;20057;-75
2022/01/14 01:09:10;;;;;;;21.40;10.05;;;7.40;99.90;;;;;;5019287;28;20553;-75
2022/01/14 01:11:51;;;;;;;21.80;9.68;;;7.40;99.90;;;;;;5042807;28;20049;-75
2022/01/14 01:14:32;;;;;;;20.40;9.70;;;7.40;99.90;;;;;;5043964;28;20496;-75
2022/01/14 01:16:58;;;;;;;26.70;8.97;;;7.40;99.90;;;;;;5033643;28;20489;-75
2022/01/14 01:19:24;;;;;;;27.15;10.90;;;7.50;99.90;;;;;;5017355;28;20056;-75
2022/01/14 01:21:49;;;;;;;25.27;10.60;;;7.40;99.90;;;;;;5019867;28;20128;-75
2022/01/14 01:24:16;;;;;;;30.15;11.70;;;7.40;99.90;;;;;;5040089;28;20465;-75
2022/01/14 01:26:43;;;;;;;26.25;11.43;;;7.40;99.90;;;;;;5041617;28;20049;-75
2022/01/14 01:31:40;;;;;;;23.50;10.55;;;7.40;99.90;;;;;;5040427;28;20128;-75
2022/01/14 01:34:15;;;;;;;22.95;11.38;;;7.40;99.90;;;;;;5041626;28;20501;-75
2022/01/14 01:36:44;;;;;;;24.90;9.98;;;7.40;99.90;;;;;;5027859;28;20056;-75
2022/01/14 01:39:14;;;;;;;23.00;10.05;;;7.50;99.90;;;;;;5025581;28;20045;-75
2022/01/14 01:41:46;;;;;;;26.02;10.50;;;7.40;99.90;;;;;;5042563;28;20037;-75
2022/01/14 01:44:14;;;;;;;23.42;11.10;;;7.40;99.90;;;;;;5038881;28;20044;-75
2022/01/14 01:46:45;;;;;;;27.52;10.65;;;7.50;99.90;;;;;;5022157;28;20104;-75
2022/01/14 01:49:11;;;;;;;31.38;11.10;;;7.40;99.90;;;;;;5036446;28;20100;-75
2022/01/14 01:51:37;;;;;;;24.85;9.93;;;7.40;99.90;;;;;;5019265;28;20053;-74
2022/01/14 01:54:03;;;;;;;24.75;11.75;;;7.40;99.90;;;;;;5022453;28;20501;-75
2022/01/14 01:56:30;;;;;;;29.52;11.07;;;7.40;99.90;;;;;;5037945;28;20049;-75
2022/01/14 01:58:56;;;;;;;33.53;11.57;;;7.40;99.90;;;;;;5017358;28;20053;-75
2022/01/14 02:01:24;;;;;;;28.15;11.98;;;7.50;99.90;;;;;;5033439;28;20053;-74
2022/01/14 02:03:52;;;;;;;29.15;11.75;;;7.60;99.90;;;;;;5020982;28;20049;-74
2022/01/14 02:06:20;;;;;;;27.35;12.55;;;7.50;99.90;;;;;;5042888;28;20057;-74
2022/01/14 02:08:46;;;;;;;32.83;13.27;;;7.40;99.90;;;;;;5027343;28;20043;-74
2022/01/14 02:11:12;;;;;;;32.03;13.50;;;7.40;99.90;;;;;;5016093;28;20045;-75
2022/01/14 02:13:38;;;;;;;32.10;12.82;;;7.30;99.90;;;;;;5036870;28;20474;-74
2022/01/14 02:18:37;;;;;;;28.05;13.50;;;7.40;99.90;;;;;;5033840;28;20440;-74
2022/01/14 02:23:54;;;;;;;34.25;15.27;;;7.30;99.90;;;;;;5026648;28;20049;-74
2022/01/14 02:26:22;;;;;;;30.63;13.57;;;7.60;99.90;;;;;;5019481;28;20052;-74
2022/01/14 02:28:49;;;;;;;37.03;14.50;;;7.40;99.90;;;;;;5038217;28;20045;-74
2022/01/14 02:31:15;;;;;;;28.95;13.82;;;7.30;99.90;;;;;;5034560;28;20474;-74
2022/01/14 02:33:41;;;;;;;30.02;14.80;;;7.50;99.90;;;;;;5045944;28;20388;-74
2022/01/14 02:36:08;;;;;;;34.22;13.98;;;7.30;99.90;;;;;;5021976;28;20037;-74
2022/01/14 02:38:34;;;;;;;36.88;14.65;;;7.30;99.90;;;;;;5022676;28;20211;-75
2022/01/14 02:41:00;;;;;;;35.90;13.50;;;7.30;99.90;;;;;;4999831;28;20497;-74
2022/01/14 02:43:26;;;;;;;32.88;14.27;;;7.30;99.90;;;;;;5026140;28;20080;-74
2022/01/14 02:45:55;;;;;;;32.03;14.02;;;7.50;99.90;;;;;;5004426;28;20049;-74
2022/01/14 02:48:27;;;;;;;35.22;15.20;;;7.30;99.90;;;;;;5022503;28;20417;-74
2022/01/14 02:50:58;;;;;;;33.60;14.63;;;7.30;99.90;;;;;;5037070;28;20124;-74
2022/01/14 02:56:04;;;;;;;30.08;14.35;;;7.40;99.90;;;;;;5038183;28;20041;-74
2022/01/14 02:58:33;;;;;;;30.70;14.18;;;7.40;99.90;;;;;;5040068;28;20409;-74
2022/01/14 03:01:03;;;;;;;36.72;14.48;;;7.40;99.90;;;;;;5033482;28;20488;-74
2022/01/14 03:03:31;;;;;;;25.50;12.95;;;7.40;99.90;;;;;;5034232;28;20080;-74
2022/01/14 03:05:57;;;;;;;29.20;14.07;;;7.40;99.90;;;;;;5035955;28;20050;-74
2022/01/14 03:08:23;;;;;;;25.27;11.40;;;7.50;99.90;;;;;;5037733;28;20080;-74
2022/01/14 03:10:55;;;;;;;35.88;15.50;;;7.50;99.90;;;;;;5009100;28;20046;-74
2022/01/14 03:13:21;;;;;;;28.77;13.77;;;7.50;99.90;;;;;;5043299;28;20079;-74
2022/01/14 03:15:47;;;;;;;27.55;12.68;;;7.50;99.90;;;;;;5019924;28;20057;-74
2022/01/14 03:18:17;;;;;;;38.83;15.55;;;7.40;99.90;;;;;;5023704;28;20054;-75
2022/01/14 03:23:11;;;;;;;30.50;14.57;;;7.40;99.90;;;;;;5037044;28;20515;-74
2022/01/14 03:25:59;;;;;;;34.90;14.35;;;7.80;99.90;;;;;;5048608;28;20515;-74
2022/01/14 03:28:23;;;;;;;35.22;15.73;;;7.40;99.90;;;;;;5040741;28;20056;-74
2022/01/14 03:30:51;;;;;;;36.47;15.55;;;7.50;99.90;;;;;;5034891;28;20449;-74
2022/01/14 03:33:18;;;;;;;36.00;15.73;;;7.60;99.90;;;;;;5028499;28;20051;-75
2022/01/14 03:35:44;;;;;;;31.98;14.48;;;7.40;99.90;;;;;;5021208;28;20044;-74
2022/01/14 03:38:10;;;;;;;41.80;16.20;;;7.40;99.90;;;;;;5032687;28;20044;-74
2022/01/14 03:40:37;;;;;;;41.88;16.85;;;7.40;99.90;;;;;;5017991;28;20049;-74
2022/01/14 03:43:03;;;;;;;39.05;17.42;;;7.60;99.90;;;;;;5021356;28;20053;-77
2022/01/14 03:45:29;;;;;;;40.88;15.90;;;7.40;99.90;;;;;;5033509;28;20073;-74
2022/01/14 03:47:55;;;;;;;38.92;16.10;;;7.40;99.90;;;;;;5028734;28;20077;-74
2022/01/14 03:50:20;;;;;;;38.80;16.58;;;7.50;99.90;;;;;;5032663;28;20586;-74
2022/01/14 03:52:46;;;;;;;40.70;16.73;;;7.40;99.90;;;;;;4997176;28;20606;-74
2022/01/14 03:55:12;;;;;;;34.65;16.48;;;7.50;99.90;;;;;;5024230;28;20393;-74
2022/01/14 03:57:38;;;;;;;39.92;16.65;;;7.50;99.90;;;;;;5034406;28;20080;-75
2022/01/14 04:00:04;;;;;;;44.47;16.73;;;8.10;99.90;;;;;;5025088;28;20477;-74
2022/01/14 04:02:30;;;;;;;37.70;17.15;;;7.50;99.90;;;;;;5031882;28;20561;-74
2022/01/14 04:04:55;;;;;;;32.53;16.45;;;7.50;99.90;;;;;;5001192;28;20132;-75
2022/01/14 04:07:21;;;;;;;35.95;16.30;;;7.50;99.90;;;;;;5013327;28;20053;-75
2022/01/14 04:09:47;;;;;;;38.25;16.65;;;7.50;99.90;;;;;;5022094;28;20057;-75
2022/01/14 04:12:19;;;;;;;34.17;16.80;;;7.50;99.90;;;;;;5011953;28;20049;-75
2022/01/14 04:17:11;;;;;;;43.05;16.48;;;7.60;99.90;;;;;;5031129;28;20046;-75
2022/01/14 04:19:37;;;;;;;38.90;15.52;;;7.60;99.90;;;;;;5037919;28;20048;-75
2022/01/14 04:22:04;;;;;;;33.35;16.75;;;7.60;99.90;;;;;;5040328;28;20041;-75
2022/01/14 04:24:29;;;;;;;37.50;16.67;;;7.60;99.90;;;;;;5037057;28;20049;-74
2022/01/14 04:26:55;;;;;;;33.72;15.00;;;7.60;99.90;;;;;;5016013;28;20508;-75
2022/01/14 04:29:21;;;;;;;33.53;14.65;;;7.50;99.90;;;;;;5005361;28;20556;-75
2022/01/14 04:31:47;;;;;;;41.15;16.42;;;7.50;99.90;;;;;;5014251;28;20300;-75
2022/01/14 04:34:15;;;;;;;33.70;15.75;;;7.40;99.90;;;;;;5021546;28;20055;-75
2022/01/14 04:36:42;;;;;;;37.38;14.85;;;7.80;99.90;;;;;;5020677;28;20507;-74
2022/01/14 04:39:07;;;;;;;42.35;17.85;;;7.30;99.90;;;;;;5019697;28;20060;-74
2022/01/14 04:41:33;;;;;;;39.00;16.38;;;7.30;99.90;;;;;;5018118;28;20482;-75
2022/01/14 04:43:59;;;;;;;37.08;17.33;;;7.20;99.90;;;;;;5017480;28;20049;-74
2022/01/14 04:48:53;;;;;;;41.65;17.25;;;7.20;99.90;;;;;;5013409;28;20045;-75
2022/01/14 04:51:21;;;;;;;43.08;18.10;;;7.20;99.90;;;;;;5038815;28;20037;-75
2022/01/14 04:53:47;;;;;;;41.72;17.80;;;7.20;99.90;;;;;;5030329;28;20501;-75
2022/01/14 04:56:13;;;;;;;39.83;17.45;;;7.20;99.90;;;;;;5028435;28;20390;-75
2022/01/14 04:58:39;;;;;;;41.85;17.35;;;7.30;99.90;;;;;;5037944;28;20046;-75
2022/01/14 05:01:05;;;;;;;39.20;16.73;;;7.30;99.90;;;;;;5023189;28;20041;-75
2022/01/14 05:03:31;;;;;;;37.05;16.98;;;7.30;99.90;;;;;;5018660;28;20485;-75
2022/01/14 05:06:00;;;;;;;42.58;17.38;;;7.60;99.90;;;;;;5027643;28;20067;-76
2022/01/14 05:08:35;;;;;;;35.20;17.02;;;7.30;99.90;;;;;;5004467;28;20076;-75
2022/01/14 05:11:21;;;;;;;39.78;17.42;;;7.30;99.90;;;;;;5018417;28;20037;-75
2022/01/14 05:13:48;;;;;;;40.15;17.83;;;7.30;99.90;;;;;;5015553;28;20065;-75
2022/01/14 05:16:13;;;;;;;38.10;16.67;;;8.20;99.90;;;;;;5024488;28;20044;-75
2022/01/14 05:18:40;;;;;;;45.72;17.08;;;7.40;99.90;;;;;;5031356;28;20060;-75
2022/01/14 05:21:07;;;;;;;37.97;16.42;;;7.40;99.90;;;;;;5024364;28;20063;-75
2022/01/14 05:23:33;;;;;;;39.35;15.48;;;7.40;99.90;;;;;;5013058;28;20362;-75
2022/01/14 05:25:59;;;;;;;36.30;14.13;;;7.60;99.90;;;;;;5034270;28;20044;-75
2022/01/14 05:28:25;;;;;;;44.40;17.08;;;7.40;99.90;;;;;;5046990;28;20132;-75
2022/01/14 05:30:50;;;;;;;34.83;16.23;;;7.50;99.90;;;;;;5027822;28;20409;-75
2022/01/14 05:33:17;;;;;;;44.10;16.05;;;7.50;99.90;;;;;;5038649;28;20084;-75
2022/01/14 05:35:43;;;;;;;36.60;16.77;;;7.50;99.90;;;;;;5046247;28;20041;-75
2022/01/14 05:38:09;;;;;;;39.38;16.73;;;7.50;99.90;;;;;;5025968;28;20045;-75
2022/01/14 05:40:35;;;;;;;38.13;17.40;;;7.50;99.90;;;;;;5049411;28;20413;-75
2022/01/14 05:43:01;;;;;;;37.72;17.15;;;7.50;99.90;;;;;;5035321;28;20041;-75
2022/01/14 05:45:27;;;;;;;31.08;15.23;;;7.80;99.90;;;;;;5046096;28;20118;-75
2022/01/14 05:47:54;;;;;;;35.45;15.32;;;7.60;99.90;;;;;;5039954;28;20048;-75
2022/01/14 05:50:24;;;;;;;38.15;16.58;;;7.60;99.90;;;;;;5037530;28;20385;-75
2022/01/14 05:52:50;;;;;;;38.30;16.95;;;7.50;99.90;;;;;;5037296;28;20055;-75
2022/01/14 05:55:18;;;;;;;36.17;16.20;;;7.50;99.90;;;;;;5024314;28;20037;-75
2022/01/14 05:57:44;;;;;;;41.75;16.95;;;7.60;99.90;;;;;;5021621;28;20049;-75
2022/01/14 06:00:16;;;;;;;38.20;16.23;;;7.60;99.90;;;;;;5025571;28;20444;-75
2022/01/14 06:02:42;;;;;;;38.00;16.20;;;7.60;99.90;;;;;;5033504;28;20048;-76
2022/01/14 06:05:08;;;;;;;31.25;13.60;;;7.80;99.90;;;;;;5042485;28;20049;-75
2022/01/14 06:07:34;;;;;;;33.47;15.95;;;7.60;99.90;;;;;;5043836;28;20053;-75
2022/01/14 06:10:00;;;;;;;36.28;15.73;;;7.60;99.90;;;;;;5022460;28;20041;-75
2022/01/14 06:12:25;;;;;;;37.83;16.42;;;7.60;99.90;;;;;;5047239;28;20092;-75
2022/01/14 06:14:51;;;;;;;36.10;15.30;;;7.60;99.90;;;;;;5022522;28;20595;-75
2022/01/14 06:17:17;;;;;;;42.85;16.60;;;7.60;99.90;;;;;;5018351;28;20048;-75
2022/01/14 06:19:42;;;;;;;30.13;15.43;;;7.80;99.90;;;;;;5019612;28;20398;-75
2022/01/14 06:22:08;;;;;;;37.97;15.65;;;7.60;99.90;;;;;;5021743;28;20408;-73
2022/01/14 06:24:34;;;;;;;41.08;15.10;;;7.60;99.90;;;;;;5037991;28;20132;-74
2022/01/14 06:27:01;;;;;;;33.63;15.02;;;7.60;99.90;;;;;;5001628;28;20129;-75
2022/01/14 06:29:26;;;;;;;40.05;15.55;;;7.60;99.90;;;;;;5036237;28;20434;-73
2022/01/14 06:31:52;;;;;;;32.65;14.20;;;7.60;99.90;;;;;;5043839;28;20095;-74
2022/01/14 06:34:18;;;;;;;33.03;15.38;;;7.60;99.90;;;;;;5016806;28;20500;-74
2022/01/14 06:36:44;;;;;;;32.85;15.88;;;7.60;99.90;;;;;;5033538;28;20041;-74
2022/01/14 06:39:10;;;;;;;33.00;13.68;;;7.60;99.90;;;;;;5041284;28;20046;-73
2022/01/14 06:41:37;;;;;;;35.80;15.80;;;7.50;99.90;;;;;;5022588;28;20049;-77
2022/01/14 06:44:04;;;;;;;30.27;13.68;;;7.60;99.90;;;;;;5000391;28;20128;-76
2022/01/14 06:46:29;;;;;;;36.30;17.00;;;7.50;99.90;;;;;;5014500;28;20049;-74
2022/01/14 06:48:55;;;;;;;35.50;15.00;;;7.50;99.90;;;;;;5014334;28;20556;-75
2022/01/14 06:51:21;;;;;;;37.67;16.27;;;7.50;99.90;;;;;;5032924;28;20493;-75
2022/01/14 06:53:46;;;;;;;35.75;16.10;;;7.50;99.90;;;;;;5015409;28;20093;-74
2022/01/14 06:56:14;;;;;;;36.92;16.65;;;7.60;99.90;;;;;;5020104;28;20056;-75
2022/01/14 06:58:40;;;;;;;37.50;16.38;;;7.60;99.90;;;;;;4999236;28;20050;-75
2022/01/14 07:01:06;;;;;;;35.60;17.02;;;7.60;99.90;;;;;;5015325;28;20079;-75
2022/01/14 07:03:32;;;;;;;36.03;16.30;;;7.60;99.90;;;;;;5017987;28;20470;-73
2022/01/14 07:05:58;;;;;;;32.17;15.18;;;7.60;99.90;;;;;;5033280;28;20091;-74
2022/01/14 07:08:24;;;;;;;33.15;15.55;;;7.60;99.90;;;;;;5030121;28;20057;-74
2022/01/14 07:10:50;;;;;;;38.22;16.70;;;7.60;99.90;;;;;;5015141;28;20077;-74
2022/01/14 07:13:16;;;;;;;35.47;16.83;;;7.60;99.90;;;;;;5031151;28;20064;-74
2022/01/14 07:15:42;;;;;;;34.85;16.73;;;7.60;99.90;;;;;;5031438;28;20049;-74
2022/01/14 07:18:09;;;;;;;35.53;14.95;;;8.10;99.90;;;;;;5014042;28;20119;-74
2022/01/14 07:20:35;;;;;;;29.83;14.48;;;7.60;99.90;;;;;;5031106;28;20057;-74
2022/01/14 07:23:01;;;;;;;34.67;12.60;;;7.60;99.90;;;;;;5030733;28;20506;-75
2022/01/14 07:25:26;;;;;;;36.42;14.43;;;7.60;99.90;;;;;;5030949;28;20122;-75
2022/01/14 07:27:52;;;;;;;31.65;14.18;;;8.20;99.90;;;;;;5013148;28;20569;-74
2022/01/14 07:30:18;;;;;;;34.63;13.98;;;7.70;99.90;;;;;;5013967;28;20049;-75
2022/01/14 07:32:44;;;;;;;31.20;13.40;;;8.10;99.90;;;;;;5013970;28;20065;-75
2022/01/14 07:35:11;;;;;;;39.92;14.05;;;8.00;99.90;;;;;;5030097;28;20379;-75
2022/01/14 07:37:37;;;;;;;32.88;14.27;;;7.70;99.90;;;;;;5033286;28;20060;-75
2022/01/14 07:40:04;;;;;;;26.95;13.15;;;7.70;99.90;;;;;;5015210;28;20046;-75
2022/01/14 07:42:30;;;;;;;29.63;13.02;;;7.70;99.90;;;;;;5029672;28;20458;-75
2022/01/14 07:44:56;;;;;;;34.78;12.68;;;8.00;99.90;;;;;;5030889;28;20050;-75
2022/01/14 07:47:21;;;;;;;30.88;12.55;;;7.70;99.90;;;;;;4997599;28;20387;-74
2022/01/14 07:49:48;;;;;;;28.95;13.07;;;7.70;99.90;;;;;;5013695;28;20434;-74
2022/01/14 07:52:14;;;;;;;34.55;13.80;;;7.70;99.90;;;;;;5013915;28;20133;-75
2022/01/14 07:54:40;;;;;;;29.70;13.57;;;7.70;99.90;;;;;;5013956;28;20489;-75
2022/01/14 07:57:08;;;;;;;27.38;13.35;;;7.70;99.90;;;;;;5013701;28;20055;-74
2022/01/14 07:59:35;;;;;;;26.08;12.25;;;7.70;99.90;;;;;;5030178;28;20393;-74
2022/01/14 08:02:01;;;;;;;35.78;13.20;;;7.70;99.90;;;;;;5013422;28;20049;-74
2022/01/14 08:04:27;;;;;;;30.00;12.50;;;7.70;99.90;;;;;;4999436;28;20057;-75
2022/01/14 08:06:57;;;;;;;32.40;13.25;;;7.70;99.90;;;;;;5027680;28;20119;-74
2022/01/14 08:09:23;;;;;;;28.67;12.00;;;7.80;99.90;;;;;;5014442;28;20057;-75
2022/01/14 08:11:50;;;;;;;30.73;12.02;;;7.80;99.90;;;;;;4997727;28;20081;-74
2022/01/14 08:14:16;;;;;;;32.20;12.93;;;7.70;99.90;;;;;;5014456;28;20091;-74
2022/01/14 08:16:42;;;;;;;27.30;11.75;;;7.80;99.90;;;;;;5013294;28;20048;-74
2022/01/14 08:19:08;;;;;;;31.02;11.90;;;7.80;99.90;;;;;;5030629;28;20053;-75
2022/01/14 08:21:34;;;;;;;32.15;12.50;;;7.80;99.90;;;;;;5030221;28;20457;-75
2022/01/14 08:24:00;;;;;;;21.88;10.65;;;7.80;99.90;;;;;;4997863;28;20042;-74
2022/01/14 08:26:26;;;;;;;28.15;11.40;;;7.80;99.90;;;;;;5014474;28;20049;-75
2022/01/14 08:28:52;;;;;;;26.00;11.55;;;7.80;99.90;;;;;;5030019;28;20060;-74
2022/01/14 08:31:18;;;;;;;25.58;9.73;;;7.80;99.90;;;;;;5030195;28;20049;-74
2022/01/14 08:33:46;;;;;;;23.23;10.80;;;8.60;99.90;;;;;;5030460;28;20457;-74
2022/01/14 08:36:13;;;;;;;25.95;10.80;;;7.90;99.90;;;;;;5014307;28;20068;-74
2022/01/14 08:38:39;;;;;;;21.67;9.55;;;7.90;99.90;;;;;;5030033;28;20236;-74
2022/01/14 08:41:05;;;;;;;28.80;9.52;;;7.90;99.90;;;;;;5030549;28;20557;-74
2022/01/14 08:43:31;;;;;;;27.98;10.82;;;7.90;99.90;;;;;;5013715;28;20486;-74
2022/01/14 08:46:02;;;;;;;25.38;10.10;;;7.90;99.90;;;;;;5013728;28;20049;-75
2022/01/14 08:48:30;;;;;;;;;;;8.00;99.90;;;;;;4998394;28;20073;-75
2022/01/14 08:50:57;;;;;;;31.08;10.70;;;8.00;99.90;;;;;;5030484;28;19921;-75
2022/01/14 08:53:22;;;;;;;26.92;10.40;;;8.00;99.90;;;;;;5013417;28;20049;-75
2022/01/14 08:55:48;;;;;;;20.95;8.77;;;8.00;99.90;;;;;;5013845;28;20072;-75
2022/01/14 08:58:14;;;;;;;23.20;10.30;;;8.00;99.90;;;;;;5013318;28;20087;-74
2022/01/14 09:00:40;;;;;;;20.83;10.18;;;8.80;99.90;;;;;;5014779;28;20474;-75
2022/01/14 09:03:06;;;;;;;19.88;8.32;;;8.00;99.90;;;;;;5016921;28;20207;-75
2022/01/14 09:05:33;;;;;;;22.13;9.32;;;8.10;99.90;;;;;;5033397;28;20103;-74
2022/01/14 09:08:00;;;;;;;24.02;8.70;;;8.10;99.90;;;;;;5016914;28;20049;-74
2022/01/14 09:10:26;;;;;;;23.10;9.82;;;8.10;99.90;;;;;;5017572;28;20055;-75
2022/01/14 09:12:52;;;;;;;26.05;9.70;;;8.10;99.90;;;;;;5033503;28;20045;-75
2022/01/14 09:15:18;;;;;;;22.17;9.40;;;8.20;99.90;;;;;;5017308;28;20060;-75
2022/01/14 09:17:44;;;;;;;25.58;10.23;;;8.20;99.90;;;;;;5016490;28;20497;-75
2022/01/14 09:20:13;;;;;;;18.95;8.80;;;8.20;99.90;;;;;;5016462;28;20052;-75
2022/01/14 09:22:42;;;;;;;21.17;8.20;;;8.30;99.90;;;;;;5033230;28;20397;-74
2022/01/14 09:25:08;;;;;;;20.67;8.75;;;8.30;99.90;;;;;;5016992;28;20477;-74
2022/01/14 09:27:34;;;;;;;23.85;9.40;;;8.30;99.90;;;;;;5016669;28;20045;-75
2022/01/14 09:30:03;;;;;;;23.95;8.15;;;8.30;99.90;;;;;;5000884;28;20081;-75
2022/01/14 09:32:30;;;;;;;18.80;8.05;;;8.30;99.90;;;;;;5033421;28;20071;-75
2022/01/14 09:34:56;;;;;;;24.23;9.70;;;8.30;99.90;;;;;;5016752;28;20045;-75
2022/01/14 09:37:21;;;;;;;21.65;7.40;;;8.30;99.90;;;;;;5016239;28;20053;-75
2022/01/14 09:39:47;;;;;;;19.50;8.20;;;8.30;99.90;;;;;;5000483;28;20053;-74
2022/01/14 09:42:14;;;;;;;18.27;8.38;;;8.40;99.90;;;;;;5016170;28;20492;-75
2022/01/14 09:44:43;;;;;;;25.50;7.82;;;8.40;99.90;;;;;;5016536;28;20045;-75
2022/01/14 09:47:09;;;;;;;19.50;7.18;;;8.40;99.90;;;;;;5015889;28;20053;-74
2022/01/14 09:49:36;;;;;;;15.70;6.00;;;8.40;99.90;;;;;;4999883;28;20094;-74
2022/01/14 09:52:03;;;;;;;17.65;7.18;;;8.40;99.90;;;;;;5033027;28;20052;-75
2022/01/14 09:54:30;;;;;;;18.27;7.00;;;8.50;99.90;;;;;;5016625;28;20056;-75
2022/01/14 09:56:56;;;;;;;17.73;6.60;;;8.50;99.90;;;;;;5015994;28;20187;-75
2022/01/14 09:59:22;;;;;;;17.23;6.82;;;8.50;99.90;;;;;;5016552;28;20049;-74
2022/01/14 10:01:48;;;;;;;16.85;6.72;;;8.50;99.90;;;;;;5015577;28;20513;-74
2022/01/14 10:04:18;;;;;;;16.58;6.55;;;8.60;99.90;;;;;;5021754;28;20046;-74
2022/01/14 10:06:53;;;;;;;20.92;6.05;;;8.60;99.90;;;;;;5015262;28;20503;-75
2022/01/14 10:09:33;;;;;;;16.27;5.43;;;8.60;99.90;;;;;;5016148;28;20056;-74
2022/01/14 10:12:11;;;;;;;18.05;5.47;;;8.60;99.90;;;;;;5032328;28;20081;-75
2022/01/14 10:14:39;;;;;;;12.38;4.88;;;8.60;99.90;;;;;;5016103;28;20098;-74
2022/01/14 10:17:08;;;;;;;14.85;5.95;;;8.60;99.90;;;;;;5015329;28;20061;-75
2022/01/14 10:19:42;;;;;;;15.00;4.88;;;8.60;99.90;;;;;;5032474;28;20100;-74
2022/01/14 10:22:28;;;;;;;14.43;4.15;;;8.70;99.90;;;;;;5031883;28;20103;-75
2022/01/14 10:25:02;;;;;;;10.88;4.53;;;8.70;99.90;;;;;;5032619;28;20046;-74
2022/01/14 10:27:36;;;;;;;14.23;4.80;;;8.70;99.90;;;;;;5015576;28;20087;-74
2022/01/14 10:30:23;;;;;;;11.10;4.20;;;8.70;99.90;;;;;;5015850;28;20060;-74
2022/01/14 10:33:01;;;;;;;19.85;4.20;;;8.70;99.90;;;;;;5032104;28;20104;-74
2022/01/14 10:35:29;;;;;;;18.50;4.68;;;8.70;99.90;;;;;;5016185;28;20060;-74
2022/01/14 10:38:03;;;;;;;14.27;4.20;;;8.70;99.90;;;;;;5031790;28;20053;-74
2022/01/14 10:40:39;;;;;;;14.98;5.03;;;8.70;99.90;;;;;;5015617;28;20045;-74
2022/01/14 10:43:08;;;;;;;26.70;15.00;;;8.70;99.90;;;;;;5031152;28;20053;-74
2022/01/14 10:45:35;;;;;;;12.02;4.72;;;8.80;99.90;;;;;;5015503;28;20128;-74
2022/01/14 10:48:04;;;;;;;17.15;4.35;;;8.80;99.90;;;;;;5015199;28;20544;-74
2022/01/14 10:50:42;;;;;;;20.35;4.50;;;8.80;99.90;;;;;;5015224;28;20057;-74
2022/01/14 10:53:16;;;;;;;20.95;4.70;;;8.80;99.90;;;;;;5031926;28;20076;-74
2022/01/14 10:55:53;;;;;;;12.18;3.88;;;8.70;99.90;;;;;;5015157;28;20053;-74
2022/01/14 10:58:24;;;;;;;14.27;3.95;;;8.70;99.90;;;;;;5014918;28;20049;-74
2022/01/14 11:00:59;;;;;;;11.88;3.80;;;8.90;99.90;;;;;;5014780;28;20102;-74
2022/01/14 11:03:32;;;;;;;15.43;4.10;;;8.80;99.90;;;;;;5031329;28;20059;-74
2022/01/14 11:06:24;;;;;;;15.93;3.83;;;8.80;99.90;;;;;;5031307;28;20054;-74
2022/01/14 11:09:13;;;;;;;13.52;4.15;;;8.80;99.90;;;;;;5014479;28;20038;-74
2022/01/14 11:11:41;;;;;;;13.70;3.75;;;8.80;99.90;;;;;;5031051;28;20041;-75
2022/01/14 11:14:08;;;;;;;21.05;4.20;;;9.00;99.90;;;;;;5031198;28;20049;-74
2022/01/14 11:16:35;;;;;;;13.98;3.88;;;8.80;99.90;;;;;;5014414;28;20124;-74
2022/01/14 11:19:03;;;;;;;14.15;7.07;;;8.80;99.90;;;;;;5031466;28;20073;-74
2022/01/14 11:24:29;;;;;;;13.57;3.60;;;8.80;99.90;;;;;;5016673;28;20410;-75
2022/01/14 11:27:00;;;;;;;15.95;4.55;;;8.90;99.90;;;;;;5014596;28;20164;-75
2022/01/14 11:29:32;;;;;;;19.25;4.22;;;8.90;99.90;;;;;;5014798;28;20049;-75
2022/01/14 11:32:02;;;;;;;15.65;3.80;;;8.90;99.90;;;;;;5030725;28;20410;-75
2022/01/14 11:34:36;;;;;;;13.20;5.05;;;8.90;99.90;;;;;;5030804;28;20042;-75
2022/01/14 11:37:07;;;;;;;16.23;4.10;;;8.90;99.90;;;;;;5013636;28;20128;-75
2022/01/14 11:39:37;;;;;;;16.80;3.70;;;8.90;99.90;;;;;;5014710;28;20124;-75
2022/01/14 11:42:14;;;;;;;12.15;3.80;;;8.90;99.90;;;;;;5030648;28;20056;-75
2022/01/14 11:44:52;;;;;;;10.55;3.60;;;8.90;99.90;;;;;;5031076;28;20045;-75
2022/01/14 11:47:25;;;;;;;13.93;4.30;;;9.60;99.90;;;;;;5014071;28;20083;-75
2022/01/14 11:49:52;;;;;;;14.70;7.53;;;8.90;99.90;;;;;;5014540;28;20132;-75
2022/01/14 11:52:32;;;;;;;9.73;3.88;;;8.90;99.90;;;;;;5013789;28;20053;-75
2022/01/14 11:54:58;;;;;;;11.77;3.80;;;9.00;99.90;;;;;;5030966;28;20060;-75
2022/01/14 11:57:45;;;;;;;16.23;4.43;;;9.00;99.90;;;;;;5014067;28;20041;-74
2022/01/14 12:00:26;;;;;;;14.07;4.47;;;8.90;99.90;;;;;;5014171;28;20372;-75
2022/01/14 12:03:07;;;;;;;18.08;4.38;;;9.00;99.90;;;;;;5030503;28;20053;-75
2022/01/14 12:05:35;;;;;;;15.73;4.00;;;9.00;99.90;;;;;;5030084;28;20057;-75
2022/01/14 12:08:04;;;;;;;15.90;4.63;;;9.70;99.90;;;;;;5011457;28;20065;-75
2022/01/14 12:10:39;;;;;;;16.52;4.95;;;9.00;99.90;;;;;;5014204;28;20196;-75
2022/01/14 12:16:08;;;;;;;14.57;4.43;;;9.00;99.90;;;;;;5034554;28;20053;-75
2022/01/14 12:18:57;;;;;;;14.05;4.68;;;9.00;99.90;;;;;;5030942;28;20045;-75
2022/01/14 12:21:53;;;;;;;13.75;4.75;;;9.10;99.90;;;;;;5005375;28;20057;-75
2022/01/14 12:24:19;;;;;;;14.15;4.68;;;9.10;99.90;;;;;;5001460;28;20072;-75
2022/01/14 12:26:57;;;;;;;14.57;5.00;;;9.10;99.90;;;;;;5013757;28;20485;-75
2022/01/14 12:29:34;;;;;;;20.23;5.07;;;9.00;99.90;;;;;;5030243;28;20068;-75
2022/01/14 12:32:11;;;;;;;16.05;4.57;;;9.00;99.90;;;;;;5030460;28;20049;-75
2022/01/14 12:34:57;;;;;;;18.85;4.82;;;9.00;99.90;;;;;;5031149;28;20049;-75
2022/01/14 12:37:46;;;;;;;17.63;5.00;;;9.00;99.90;;;;;;5017483;28;20487;-75
2022/01/14 12:40:15;;;;;;;19.05;4.82;;;9.10;99.90;;;;;;5034503;28;20179;-75
2022/01/14 12:42:49;;;;;;;14.48;4.30;;;9.10;99.90;;;;;;5017767;28;20045;-75
2022/01/14 12:45:34;;;;;;;20.17;4.97;;;9.10;99.90;;;;;;5017992;28;20106;-74
2022/01/14 12:48:05;;;;;;;18.15;4.85;;;9.10;99.90;;;;;;5033889;28;20516;-75
2022/01/14 12:50:31;;;;;;;17.92;5.15;;;9.00;99.90;;;;;;5017305;28;20080;-75
2022/01/14 12:52:57;;;;;;;23.33;5.47;;;9.10;99.90;;;;;;5017899;28;20080;-75
2022/01/14 12:55:22;;;;;;;21.95;5.22;;;9.10;99.90;;;;;;5034365;28;20049;-75
2022/01/14 12:57:48;;;;;;;16.98;5.35;;;9.10;99.90;;;;;;5017374;28;20597;-75
2022/01/14 13:00:16;;;;;;;25.45;5.57;;;9.00;99.90;;;;;;5001340;28;20486;-75
2022/01/14 13:02:42;;;;;;;18.23;5.30;;;9.00;99.90;;;;;;5037370;28;20141;-75
2022/01/14 13:05:21;;;;;;;24.33;5.65;;;9.10;99.90;;;;;;5020005;28;20519;-75
2022/01/14 13:07:48;;;;;;;22.98;5.53;;;9.00;99.90;;;;;;5016954;28;20172;-75
2022/01/14 13:10:16;;;;;;;19.83;5.53;;;9.00;99.90;;;;;;5017090;28;20106;-75
2022/01/14 13:12:44;;;;;;;19.92;6.00;;;9.00;99.90;;;;;;5033989;28;20092;-75
2022/01/14 13:15:18;;;;;;;19.33;5.88;;;9.10;99.90;;;;;;5033796;28;20053;-75
2022/01/14 13:18:03;;;;;;;22.77;6.00;;;9.10;99.90;;;;;;5032809;28;20064;-75
2022/01/14 13:20:31;;;;;;;19.25;5.95;;;9.10;99.90;;;;;;5034376;28;20053;-75
2022/01/14 13:22:57;;;;;;;19.77;6.07;;;9.10;99.90;;;;;;5017045;28;20065;-75
2022/01/14 13:25:29;;;;;;;18.80;6.10;;;9.20;99.90;;;;;;5033677;28;20092;-75